createdAt,value
2023-04-23T00:00:36.705Z,0.75
2023-04-23T00:05:38.678Z,1.00
2023-04-23T00:10:40.207Z,0.73
2023-04-23T00:15:41.761Z,1.00
2023-04-23T00:20:43.491Z,0.80
2023-04-23T00:25:44.963Z,0.93
2023-04-23T00:30:46.554Z,0.90
2023-04-23T00:35:48.184Z,1.00
2023-04-23T00:40:50.072Z,0.77
2023-04-23T00:45:51.707Z,1.05
2023-04-23T00:51:00.768Z,1.10
2023-04-23T00:56:04.176Z,1.05
2023-04-23T01:01:05.952Z,0.90
2023-04-23T01:06:07.637Z,0.80
2023-04-23T01:11:09.551Z,0.93
2023-04-23T01:16:11.623Z,0.80
2023-04-23T01:21:15.181Z,0.93
2023-04-23T01:26:19.188Z,0.70
2023-04-23T01:31:21.138Z,1.25
2023-04-23T01:36:23.504Z,0.73
2023-04-23T01:41:25.183Z,0.82
2023-04-23T01:46:27.158Z,0.75
2023-04-23T01:51:29.915Z,0.70
2023-04-23T01:56:33.386Z,1.05
2023-04-23T02:01:47.486Z,1.23
2023-04-23T02:06:50.412Z,0.77
2023-04-23T02:11:51.890Z,0.98
2023-04-23T02:16:53.395Z,0.57
2023-04-23T02:21:54.922Z,0.60
2023-04-23T02:26:58.033Z,0.93
2023-04-23T02:31:59.813Z,1.20
2023-04-23T02:37:01.634Z,0.90
2023-04-23T02:42:03.233Z,0.75
2023-04-23T02:47:05.052Z,1.10
2023-04-23T02:52:06.666Z,1.15
2023-04-23T02:57:08.154Z,0.90
2023-04-23T03:02:09.799Z,0.77
2023-04-23T03:07:13.351Z,0.95
2023-04-23T03:12:14.842Z,1.13
2023-04-23T03:17:16.368Z,0.75
2023-04-23T03:22:17.823Z,1.02
2023-04-23T03:27:19.334Z,0.93
2023-04-23T03:32:20.863Z,0.82
2023-04-23T03:37:22.372Z,0.88
2023-04-23T03:42:23.839Z,0.90
2023-04-23T03:47:25.821Z,0.75
2023-04-23T03:52:27.540Z,0.98
2023-04-23T03:57:29.169Z,0.75
2023-04-23T04:02:31.041Z,0.90
2023-04-23T04:07:33.653Z,1.33
2023-04-23T04:12:35.312Z,1.20
2023-04-23T04:17:36.812Z,0.85
2023-04-23T04:22:38.327Z,0.82
2023-04-23T04:27:41.498Z,0.85
2023-04-23T04:32:45.582Z,0.80
2023-04-23T04:37:47.416Z,1.20
2023-04-23T04:42:48.897Z,1.23
2023-04-23T04:47:50.758Z,1.00
2023-04-23T04:52:52.286Z,1.30
2023-04-23T04:57:53.820Z,0.93
2023-04-23T05:02:56.059Z,1.00
2023-04-23T05:08:00.633Z,1.05
2023-04-23T05:13:02.105Z,1.30
2023-04-23T05:18:04.614Z,1.48
2023-04-23T05:23:06.140Z,1.25
2023-04-23T05:28:08.781Z,1.30
2023-04-23T05:33:10.563Z,1.13
2023-04-23T05:38:12.182Z,1.30
2023-04-23T05:43:13.731Z,1.23
2023-04-23T05:48:15.543Z,1.17
2023-04-23T05:53:17.046Z,1.05
2023-04-23T05:58:19.315Z,1.10
2023-04-23T06:03:21.093Z,1.20
2023-04-23T06:08:24.937Z,1.48
2023-04-23T06:13:28.236Z,1.42
2023-04-23T06:18:29.703Z,1.17
2023-04-23T06:23:31.563Z,0.93
2023-04-23T06:28:33.105Z,1.40
2023-04-23T06:33:36.468Z,1.60
2023-04-23T06:38:38.455Z,1.50
2023-04-23T06:43:39.954Z,1.02
2023-04-23T06:48:41.525Z,1.40
2023-04-23T06:53:42.984Z,1.00
2023-04-23T06:58:44.516Z,1.02
2023-04-23T07:03:49.253Z,1.40
2023-04-23T07:08:50.871Z,1.13
2023-04-23T07:13:52.366Z,1.10
2023-04-23T07:18:54.135Z,1.10
2023-04-23T07:23:56.645Z,1.00
2023-04-23T07:28:58.335Z,1.00
2023-04-23T07:33:59.815Z,0.95
2023-04-23T07:39:01.357Z,1.00
2023-04-23T07:44:02.907Z,0.60
2023-04-23T07:49:04.586Z,0.90
2023-04-23T07:54:06.171Z,0.75
2023-04-23T07:59:07.700Z,0.60
2023-04-23T08:04:09.456Z,1.23
2023-04-23T08:09:11.252Z,1.20
2023-04-23T08:14:12.778Z,0.90
2023-04-23T08:19:14.288Z,1.00
2023-04-23T08:24:15.754Z,0.93
2023-04-23T08:29:17.206Z,1.10
2023-04-23T08:34:18.667Z,0.85
2023-04-23T08:39:20.226Z,0.82
2023-04-23T08:44:25.801Z,0.68
2023-04-23T08:49:31.145Z,0.60
2023-04-23T08:54:34.828Z,0.55
2023-04-23T08:59:36.331Z,0.77
2023-04-23T09:04:38.164Z,0.80
2023-04-23T09:09:41.591Z,0.75
2023-04-23T09:14:43.619Z,0.80
2023-04-23T09:19:46.376Z,0.82
2023-04-23T09:24:47.868Z,0.82
2023-04-23T09:29:53.142Z,0.73
2023-04-23T09:34:56.637Z,0.90
2023-04-23T09:40:08.807Z,0.80
2023-04-23T09:45:12.033Z,0.80
2023-04-23T09:50:13.754Z,0.68
2023-04-23T09:55:15.523Z,0.60
2023-04-23T10:00:19.385Z,0.60
2023-04-23T10:05:24.848Z,2.83
2023-04-23T10:10:30.967Z,1.13
2023-04-23T10:15:33.282Z,0.70
2023-04-23T10:20:35.698Z,0.77
2023-04-23T10:25:39.231Z,0.80
2023-04-23T10:30:41.046Z,1.10
2023-04-23T10:35:42.663Z,0.90
2023-04-23T10:40:46.791Z,0.70
2023-04-23T10:45:49.922Z,0.80
2023-04-23T10:51:09.839Z,0.90
2023-04-23T10:56:20.606Z,1.00
2023-04-23T11:01:24.712Z,0.93
2023-04-23T11:06:44.909Z,1.40
2023-04-23T11:11:46.478Z,1.50
2023-04-23T11:16:48.992Z,1.30
2023-04-23T11:21:59.198Z,0.93
2023-04-23T11:27:01.366Z,0.80
2023-04-23T11:32:04.135Z,0.73
2023-04-23T11:37:06.403Z,1.08
2023-04-23T11:42:11.408Z,1.05
2023-04-23T11:47:14.422Z,0.95
2023-04-23T11:52:15.954Z,0.88
2023-04-23T11:57:17.428Z,1.67
2023-04-23T12:02:19.085Z,0.68
2023-04-23T12:07:31.438Z,0.88
2023-04-23T12:12:34.285Z,1.55
2023-04-23T12:17:36.193Z,0.90
2023-04-23T12:22:37.689Z,1.10
2023-04-23T12:27:42.977Z,1.13
2023-04-23T12:32:44.487Z,1.20
2023-04-23T12:37:46.202Z,1.40
2023-04-23T12:42:47.676Z,1.05
2023-04-23T12:47:49.324Z,1.40
2023-04-23T12:52:51.081Z,1.52
2023-04-23T12:57:52.528Z,1.98
2023-04-23T13:02:54.830Z,2.08
2023-04-23T13:07:56.984Z,1.88
2023-04-23T13:12:58.447Z,2.55
2023-04-23T13:17:59.983Z,2.22
2023-04-23T13:23:03.076Z,3.25
2023-04-23T13:28:04.547Z,2.40
2023-04-23T13:33:06.157Z,2.75
2023-04-23T13:38:07.705Z,2.78
2023-04-23T13:43:09.209Z,4.28
2023-04-23T13:48:11.065Z,2.42
2023-04-23T13:53:13.485Z,2.30
2023-04-23T13:58:14.971Z,2.05
2023-04-23T14:03:16.721Z,4.32
2023-04-23T14:08:18.368Z,3.38
2023-04-23T14:13:19.955Z,3.00
2023-04-23T14:18:21.589Z,2.88
2023-04-23T14:23:23.030Z,3.00
2023-04-23T14:28:27.600Z,3.92
2023-04-23T14:33:29.121Z,3.35
2023-04-23T14:38:30.651Z,3.75
2023-04-23T14:43:34.075Z,3.30
2023-04-23T14:48:35.934Z,4.18
2023-04-23T14:53:37.433Z,4.22
2023-04-23T14:58:38.986Z,3.30
2023-04-23T15:03:40.751Z,3.40
2023-04-23T15:08:42.386Z,3.47
2023-04-23T15:14:03.857Z,3.80
2023-04-23T15:19:10.316Z,4.18
2023-04-23T15:24:11.838Z,4.35
2023-04-23T15:29:13.681Z,3.47
2023-04-23T15:34:15.640Z,4.25
2023-04-23T15:39:17.394Z,3.85
2023-04-23T15:44:19.074Z,4.50
2023-04-23T15:49:20.922Z,4.38
2023-04-23T15:54:22.421Z,3.60
2023-04-23T15:59:23.969Z,4.18
2023-04-23T16:04:25.864Z,4.35
2023-04-23T16:09:27.550Z,5.22
2023-04-23T16:14:29.023Z,4.28
2023-04-23T16:19:30.828Z,5.05
2023-04-23T16:24:32.534Z,5.03
2023-04-23T16:29:34.065Z,4.32
2023-04-23T16:34:35.570Z,4.63
2023-04-23T16:39:37.033Z,5.03
2023-04-23T16:44:38.491Z,4.35
2023-04-23T16:49:40.326Z,5.07
2023-04-23T16:54:42.067Z,4.97
2023-04-23T16:59:43.907Z,4.88
2023-04-23T17:04:45.761Z,5.88
2023-04-23T17:09:47.808Z,6.80
2023-04-23T17:14:49.375Z,7.22
2023-04-23T17:19:51.119Z,6.32
2023-04-23T17:24:52.657Z,6.70
2023-04-23T17:29:54.188Z,7.88
2023-04-23T17:35:06.304Z,7.43
2023-04-23T17:40:11.647Z,7.70
2023-04-23T17:45:13.179Z,7.38
2023-04-23T17:50:14.697Z,8.27
2023-04-23T17:55:16.300Z,9.18
2023-04-23T18:00:18.317Z,8.75
2023-04-23T18:05:20.005Z,9.32
2023-04-23T18:10:21.538Z,9.27
2023-04-23T18:15:23.150Z,8.75
2023-04-23T18:20:26.492Z,9.02
2023-04-23T18:25:28.460Z,10.23
2023-04-23T18:30:30.892Z,9.82
2023-04-23T18:35:32.443Z,9.00
2023-04-23T18:40:34.456Z,10.27
2023-04-23T18:45:36.206Z,9.57
2023-04-23T18:50:44.232Z,9.55
2023-04-23T18:55:45.815Z,9.75
2023-04-23T19:00:47.365Z,9.85
2023-04-23T19:05:49.118Z,9.45
2023-04-23T19:10:50.719Z,9.73
2023-04-23T19:15:52.289Z,10.27
2023-04-23T19:20:53.897Z,9.98
2023-04-23T19:25:55.413Z,9.77
2023-04-23T19:30:57.359Z,10.30
2023-04-23T19:35:58.824Z,10.57
2023-04-23T19:41:00.380Z,10.43
2023-04-23T19:46:02.060Z,10.88
2023-04-23T19:51:03.772Z,10.52
2023-04-23T19:56:08.470Z,10.70
2023-04-23T20:01:10.732Z,10.88
2023-04-23T20:06:12.381Z,10.55
2023-04-23T20:11:13.977Z,9.75
2023-04-23T20:16:16.554Z,10.20
2023-04-23T20:21:18.067Z,8.38
2023-04-23T20:26:20.051Z,8.40
2023-04-23T20:31:21.544Z,7.28
2023-04-23T20:36:23.547Z,7.57
2023-04-23T20:41:25.981Z,5.90
2023-04-23T20:46:30.198Z,4.38
2023-04-23T20:51:35.493Z,3.40
2023-04-23T20:56:37.126Z,3.05
2023-04-23T21:01:38.716Z,2.75
2023-04-23T21:06:40.508Z,2.65
2023-04-23T21:11:42.064Z,2.47
2023-04-23T21:16:43.591Z,2.13
2023-04-23T21:21:45.071Z,2.40
2023-04-23T21:26:46.663Z,1.73
2023-04-23T21:31:50.997Z,2.50
2023-04-23T21:36:52.525Z,2.20
2023-04-23T21:41:54.062Z,3.03
2023-04-23T21:46:55.927Z,1.65
2023-04-23T21:51:58.152Z,2.25
2023-04-23T21:56:59.632Z,2.05
2023-04-23T22:02:01.125Z,1.98
2023-04-23T22:07:05.626Z,1.88
2023-04-23T22:12:08.184Z,2.40
2023-04-23T22:17:09.726Z,1.70
2023-04-23T22:22:11.258Z,1.90
2023-04-23T22:27:12.731Z,1.70
2023-04-23T22:32:14.248Z,1.75
2023-04-23T22:37:15.888Z,1.75
2023-04-23T22:42:17.621Z,1.90
2023-04-23T22:47:19.242Z,1.67
2023-04-23T22:52:20.909Z,1.90
2023-04-23T22:57:23.019Z,1.98
2023-04-23T23:02:24.584Z,2.20
2023-04-23T23:07:26.092Z,1.80
2023-04-23T23:12:27.567Z,1.75
2023-04-23T23:17:29.090Z,2.03
2023-04-23T23:22:30.878Z,2.20
2023-04-23T23:27:32.376Z,2.28
2023-04-23T23:32:34.000Z,1.80
2023-04-23T23:37:36.079Z,2.22
2023-04-23T23:42:37.662Z,1.73
2023-04-23T23:47:39.300Z,1.90
2023-04-23T23:52:40.925Z,1.92
2023-04-23T23:57:42.442Z,1.75
